sensor_id;sensor_type;location;lat;lon;timestamp;pressure;altitude;pressure_sealevel;temperature;humidity
54242;BME280;40156;51.080;17.082;2023-06-26T00:00:06;100224.88;;;23.77;nan
54242;BME280;40156;51.080;17.082;2023-06-26T00:02:35;100217.66;;;23.67;nan
54242;BME280;40156;51.080;17.082;2023-06-26T00:05:04;100219.91;;;23.74;nan
54242;BME280;40156;51.080;17.082;2023-06-26T00:07:32;100215.16;;;23.65;nan
54242;BME280;40156;51.080;17.082;2023-06-26T00:10:04;100217.09;;;23.74;nan
54242;BME280;40156;51.080;17.082;2023-06-26T00:12:33;100217.66;;;23.67;nan
54242;BME280;40156;51.080;17.082;2023-06-26T00:15:01;100218.03;;;23.57;nan
54242;BME280;40156;51.080;17.082;2023-06-26T00:17:29;100222.81;;;23.36;nan
54242;BME280;40156;51.080;17.082;2023-06-26T00:19:57;100219.44;;;23.42;nan
54242;BME280;40156;51.080;17.082;2023-06-26T00:22:25;100220.38;;;23.55;nan
54242;BME280;40156;51.080;17.082;2023-06-26T00:24:53;100215.72;;;23.59;nan
54242;BME280;40156;51.080;17.082;2023-06-26T00:27:22;100210.91;;;23.59;nan
54242;BME280;40156;51.080;17.082;2023-06-26T00:29:50;100204.44;;;23.30;nan
54242;BME280;40156;51.080;17.082;2023-06-26T00:32:18;100212.94;;;22.83;nan
54242;BME280;40156;51.080;17.082;2023-06-26T00:34:46;100204.28;;;22.97;nan
54242;BME280;40156;51.080;17.082;2023-06-26T00:37:14;100209.59;;;23.27;nan
54242;BME280;40156;51.080;17.082;2023-06-26T00:39:42;100205.06;;;23.35;nan
54242;BME280;40156;51.080;17.082;2023-06-26T00:42:11;100202.09;;;23.32;nan
54242;BME280;40156;51.080;17.082;2023-06-26T00:44:39;100198.44;;;23.02;nan
54242;BME280;40156;51.080;17.082;2023-06-26T00:47:15;100206.66;;;23.15;nan
54242;BME280;40156;51.080;17.082;2023-06-26T00:49:43;100200.38;;;23.39;nan
54242;BME280;40156;51.080;17.082;2023-06-26T00:52:12;100196.03;;;23.21;nan
54242;BME280;40156;51.080;17.082;2023-06-26T00:54:40;100197.56;;;23.69;nan
54242;BME280;40156;51.080;17.082;2023-06-26T00:57:09;100193.59;;;23.70;nan
54242;BME280;40156;51.080;17.082;2023-06-26T00:59:37;100196.31;;;23.57;nan
54242;BME280;40156;51.080;17.082;2023-06-26T01:02:05;100193.25;;;23.42;nan
54242;BME280;40156;51.080;17.082;2023-06-26T01:04:34;100194.22;;;23.46;nan
54242;BME280;40156;51.080;17.082;2023-06-26T01:07:03;100194.94;;;23.63;nan
54242;BME280;40156;51.080;17.082;2023-06-26T01:09:31;100185.59;;;23.21;nan
54242;BME280;40156;51.080;17.082;2023-06-26T01:12:00;100187.91;;;23.49;nan
54242;BME280;40156;51.080;17.082;2023-06-26T01:14:28;100192.56;;;23.53;nan
54242;BME280;40156;51.080;17.082;2023-06-26T01:16:56;100191.09;;;23.68;nan
54242;BME280;40156;51.080;17.082;2023-06-26T01:19:27;100192.09;;;23.43;nan
54242;BME280;40156;51.080;17.082;2023-06-26T01:22:07;100192.59;;;23.65;nan
54242;BME280;40156;51.080;17.082;2023-06-26T01:24:38;100193.31;;;23.62;nan
54242;BME280;40156;51.080;17.082;2023-06-26T01:27:10;100187.81;;;23.66;nan
54242;BME280;40156;51.080;17.082;2023-06-26T01:29:40;100192.41;;;23.41;nan
54242;BME280;40156;51.080;17.082;2023-06-26T01:32:10;100189.09;;;23.39;nan
54242;BME280;40156;51.080;17.082;2023-06-26T01:34:38;100191.28;;;23.13;nan
54242;BME280;40156;51.080;17.082;2023-06-26T01:37:06;100187.53;;;23.30;nan
54242;BME280;40156;51.080;17.082;2023-06-26T01:39:34;100190.22;;;23.47;nan
54242;BME280;40156;51.080;17.082;2023-06-26T01:42:03;100182.78;;;23.51;nan
54242;BME280;40156;51.080;17.082;2023-06-26T01:44:34;100182.53;;;23.35;nan
54242;BME280;40156;51.080;17.082;2023-06-26T01:47:04;100176.94;;;23.56;nan
54242;BME280;40156;51.080;17.082;2023-06-26T01:49:56;100179.81;;;23.89;nan
54242;BME280;40156;51.080;17.082;2023-06-26T01:55:05;100167.25;;;23.07;nan
54242;BME280;40156;51.080;17.082;2023-06-26T01:57:38;100167.91;;;23.12;nan
54242;BME280;40156;51.080;17.082;2023-06-26T02:00:08;100165.16;;;23.04;nan
54242;BME280;40156;51.080;17.082;2023-06-26T02:02:37;100162.22;;;22.92;nan
54242;BME280;40156;51.080;17.082;2023-06-26T02:05:05;100164.78;;;23.14;nan
54242;BME280;40156;51.080;17.082;2023-06-26T02:07:33;100169.16;;;23.23;nan
54242;BME280;40156;51.080;17.082;2023-06-26T02:10:02;100164.56;;;23.19;nan
54242;BME280;40156;51.080;17.082;2023-06-26T02:12:30;100157.50;;;22.75;nan
54242;BME280;40156;51.080;17.082;2023-06-26T02:14:58;100157.66;;;22.78;nan
54242;BME280;40156;51.080;17.082;2023-06-26T02:17:27;100161.91;;;22.84;nan
54242;BME280;40156;51.080;17.082;2023-06-26T02:19:55;100165.59;;;22.76;nan
54242;BME280;40156;51.080;17.082;2023-06-26T02:22:23;100169.75;;;23.08;nan
54242;BME280;40156;51.080;17.082;2023-06-26T02:24:51;100169.03;;;22.91;nan
54242;BME280;40156;51.080;17.082;2023-06-26T02:27:19;100163.44;;;23.11;nan
54242;BME280;40156;51.080;17.082;2023-06-26T02:29:47;100165.91;;;22.83;nan
54242;BME280;40156;51.080;17.082;2023-06-26T02:32:16;100161.34;;;23.00;nan
54242;BME280;40156;51.080;17.082;2023-06-26T02:34:44;100167.47;;;22.64;nan
54242;BME280;40156;51.080;17.082;2023-06-26T02:37:12;100165.22;;;22.40;nan
54242;BME280;40156;51.080;17.082;2023-06-26T02:39:40;100168.94;;;22.61;nan
54242;BME280;40156;51.080;17.082;2023-06-26T02:42:08;100174.00;;;22.38;nan
54242;BME280;40156;51.080;17.082;2023-06-26T02:44:37;100179.00;;;21.81;nan
54242;BME280;40156;51.080;17.082;2023-06-26T02:47:05;100173.63;;;22.48;nan
54242;BME280;40156;51.080;17.082;2023-06-26T02:49:33;100173.31;;;22.50;nan
54242;BME280;40156;51.080;17.082;2023-06-26T02:52:02;100169.81;;;22.53;nan
54242;BME280;40156;51.080;17.082;2023-06-26T02:54:30;100173.97;;;22.47;nan
54242;BME280;40156;51.080;17.082;2023-06-26T02:56:58;100170.81;;;22.48;nan
54242;BME280;40156;51.080;17.082;2023-06-26T02:59:26;100167.00;;;22.44;nan
54242;BME280;40156;51.080;17.082;2023-06-26T03:01:54;100173.81;;;22.43;nan
54242;BME280;40156;51.080;17.082;2023-06-26T03:04:23;100166.59;;;22.80;nan
54242;BME280;40156;51.080;17.082;2023-06-26T03:06:51;100171.97;;;22.56;nan
54242;BME280;40156;51.080;17.082;2023-06-26T03:09:19;100172.06;;;22.68;nan
54242;BME280;40156;51.080;17.082;2023-06-26T03:11:47;100176.53;;;23.07;nan
54242;BME280;40156;51.080;17.082;2023-06-26T03:14:15;100172.72;;;23.12;nan
54242;BME280;40156;51.080;17.082;2023-06-26T03:16:43;100170.69;;;22.28;nan
54242;BME280;40156;51.080;17.082;2023-06-26T03:19:12;100172.41;;;21.94;nan
54242;BME280;40156;51.080;17.082;2023-06-26T03:21:40;100164.69;;;22.46;nan
54242;BME280;40156;51.080;17.082;2023-06-26T03:24:08;100165.59;;;23.14;nan
54242;BME280;40156;51.080;17.082;2023-06-26T03:26:36;100161.53;;;23.53;nan
54242;BME280;40156;51.080;17.082;2023-06-26T03:29:04;100160.03;;;24.30;nan
54242;BME280;40156;51.080;17.082;2023-06-26T03:31:33;100159.00;;;24.59;nan
54242;BME280;40156;51.080;17.082;2023-06-26T03:34:01;100163.72;;;24.55;nan
54242;BME280;40156;51.080;17.082;2023-06-26T03:36:29;100151.13;;;24.40;nan
54242;BME280;40156;51.080;17.082;2023-06-26T03:38:57;100152.09;;;23.91;nan
54242;BME280;40156;51.080;17.082;2023-06-26T03:41:25;100155.34;;;24.47;nan
54242;BME280;40156;51.080;17.082;2023-06-26T03:43:53;100155.34;;;23.81;nan
54242;BME280;40156;51.080;17.082;2023-06-26T03:46:22;100153.69;;;23.59;nan
54242;BME280;40156;51.080;17.082;2023-06-26T03:48:50;100157.53;;;23.75;nan
54242;BME280;40156;51.080;17.082;2023-06-26T03:51:18;100156.84;;;23.57;nan
54242;BME280;40156;51.080;17.082;2023-06-26T03:53:46;100153.00;;;23.83;nan
54242;BME280;40156;51.080;17.082;2023-06-26T03:56:14;100149.66;;;24.22;nan
54242;BME280;40156;51.080;17.082;2023-06-26T03:58:43;100150.16;;;25.06;nan
54242;BME280;40156;51.080;17.082;2023-06-26T04:01:11;100154.22;;;25.45;nan
54242;BME280;40156;51.080;17.082;2023-06-26T04:03:39;100147.47;;;26.29;nan
54242;BME280;40156;51.080;17.082;2023-06-26T04:06:07;100153.28;;;26.80;nan
54242;BME280;40156;51.080;17.082;2023-06-26T04:08:35;100157.09;;;26.88;nan
54242;BME280;40156;51.080;17.082;2023-06-26T04:11:03;100155.81;;;27.67;nan
54242;BME280;40156;51.080;17.082;2023-06-26T04:13:31;100161.88;;;26.99;nan
54242;BME280;40156;51.080;17.082;2023-06-26T04:16:00;100159.00;;;26.84;nan
54242;BME280;40156;51.080;17.082;2023-06-26T04:18:28;100158.13;;;26.95;nan
54242;BME280;40156;51.080;17.082;2023-06-26T04:21:13;100153.97;;;27.24;nan
54242;BME280;40156;51.080;17.082;2023-06-26T04:23:41;100156.50;;;26.35;nan
54242;BME280;40156;51.080;17.082;2023-06-26T04:26:09;100158.78;;;27.04;nan
54242;BME280;40156;51.080;17.082;2023-06-26T04:28:37;100155.19;;;28.54;nan
54242;BME280;40156;51.080;17.082;2023-06-26T04:31:05;100158.22;;;29.11;nan
54242;BME280;40156;51.080;17.082;2023-06-26T04:33:34;100145.09;;;29.29;nan
54242;BME280;40156;51.080;17.082;2023-06-26T04:36:03;100153.13;;;29.23;nan
54242;BME280;40156;51.080;17.082;2023-06-26T04:38:33;100143.84;;;30.13;nan
54242;BME280;40156;51.080;17.082;2023-06-26T04:41:01;100144.03;;;29.37;nan
54242;BME280;40156;51.080;17.082;2023-06-26T04:43:29;100155.94;;;28.74;nan
54242;BME280;40156;51.080;17.082;2023-06-26T04:45:58;100146.28;;;28.33;nan
54242;BME280;40156;51.080;17.082;2023-06-26T04:48:26;100141.59;;;29.39;nan
54242;BME280;40156;51.080;17.082;2023-06-26T04:50:55;100141.75;;;28.97;nan
54242;BME280;40156;51.080;17.082;2023-06-26T04:53:23;100144.38;;;29.92;nan
54242;BME280;40156;51.080;17.082;2023-06-26T04:55:52;100153.13;;;28.97;nan
54242;BME280;40156;51.080;17.082;2023-06-26T04:58:20;100153.91;;;28.75;nan
54242;BME280;40156;51.080;17.082;2023-06-26T05:00:48;100150.31;;;29.01;nan
54242;BME280;40156;51.080;17.082;2023-06-26T05:03:17;100141.47;;;29.88;nan
54242;BME280;40156;51.080;17.082;2023-06-26T05:05:46;100149.56;;;32.14;nan
54242;BME280;40156;51.080;17.082;2023-06-26T05:10:42;100143.91;;;33.91;nan
54242;BME280;40156;51.080;17.082;2023-06-26T05:13:11;100148.00;;;33.90;nan
54242;BME280;40156;51.080;17.082;2023-06-26T05:15:39;100144.78;;;33.53;nan
54242;BME280;40156;51.080;17.082;2023-06-26T05:18:07;100145.25;;;33.30;nan
54242;BME280;40156;51.080;17.082;2023-06-26T05:20:36;100148.59;;;35.47;nan
54242;BME280;40156;51.080;17.082;2023-06-26T05:23:05;100148.13;;;35.08;nan
54242;BME280;40156;51.080;17.082;2023-06-26T05:25:33;100143.53;;;34.62;nan
54242;BME280;40156;51.080;17.082;2023-06-26T05:28:02;100139.06;;;34.58;nan
54242;BME280;40156;51.080;17.082;2023-06-26T05:30:31;100140.41;;;35.01;nan
54242;BME280;40156;51.080;17.082;2023-06-26T05:33:00;100139.94;;;33.35;nan
54242;BME280;40156;51.080;17.082;2023-06-26T05:35:29;100141.50;;;34.59;nan
54242;BME280;40156;51.080;17.082;2023-06-26T05:37:58;100147.72;;;36.52;nan
54242;BME280;40156;51.080;17.082;2023-06-26T05:40:26;100146.50;;;37.30;nan
54242;BME280;40156;51.080;17.082;2023-06-26T05:42:55;100145.56;;;36.60;nan
54242;BME280;40156;51.080;17.082;2023-06-26T05:45:23;100141.03;;;34.71;nan
54242;BME280;40156;51.080;17.082;2023-06-26T05:47:51;100142.97;;;36.96;nan
54242;BME280;40156;51.080;17.082;2023-06-26T05:50:19;100141.53;;;35.11;nan
54242;BME280;40156;51.080;17.082;2023-06-26T05:52:48;100138.66;;;35.93;nan
54242;BME280;40156;51.080;17.082;2023-06-26T05:55:16;100142.50;;;35.83;nan
54242;BME280;40156;51.080;17.082;2023-06-26T05:57:45;100141.78;;;35.68;nan
54242;BME280;40156;51.080;17.082;2023-06-26T06:00:14;100139.31;;;36.92;nan
54242;BME280;40156;51.080;17.082;2023-06-26T06:02:42;100139.38;;;36.00;nan
54242;BME280;40156;51.080;17.082;2023-06-26T06:05:11;100140.56;;;36.64;nan
54242;BME280;40156;51.080;17.082;2023-06-26T06:07:39;100142.59;;;36.94;nan
54242;BME280;40156;51.080;17.082;2023-06-26T06:10:07;100142.75;;;38.55;nan
54242;BME280;40156;51.080;17.082;2023-06-26T06:12:36;100143.03;;;37.39;nan
54242;BME280;40156;51.080;17.082;2023-06-26T06:15:05;100139.28;;;37.42;nan
54242;BME280;40156;51.080;17.082;2023-06-26T06:17:33;100143.41;;;37.64;nan
54242;BME280;40156;51.080;17.082;2023-06-26T06:20:02;100142.25;;;38.21;nan
54242;BME280;40156;51.080;17.082;2023-06-26T06:22:30;100143.72;;;38.65;nan
54242;BME280;40156;51.080;17.082;2023-06-26T06:24:58;100141.69;;;40.46;nan
54242;BME280;40156;51.080;17.082;2023-06-26T06:27:27;100135.53;;;39.45;nan
54242;BME280;40156;51.080;17.082;2023-06-26T06:29:55;100141.56;;;38.33;nan
54242;BME280;40156;51.080;17.082;2023-06-26T06:32:23;100142.75;;;35.58;nan
54242;BME280;40156;51.080;17.082;2023-06-26T06:34:51;100142.06;;;36.75;nan
54242;BME280;40156;51.080;17.082;2023-06-26T06:37:19;100139.59;;;38.30;nan
54242;BME280;40156;51.080;17.082;2023-06-26T06:39:48;100144.56;;;39.92;nan
54242;BME280;40156;51.080;17.082;2023-06-26T06:42:16;100140.88;;;40.45;nan
54242;BME280;40156;51.080;17.082;2023-06-26T06:44:44;100148.59;;;37.92;nan
54242;BME280;40156;51.080;17.082;2023-06-26T06:47:12;100147.66;;;37.09;nan
54242;BME280;40156;51.080;17.082;2023-06-26T06:49:40;100146.34;;;41.07;nan
54242;BME280;40156;51.080;17.082;2023-06-26T06:52:08;100145.06;;;41.89;nan
54242;BME280;40156;51.080;17.082;2023-06-26T06:55:03;100136.75;;;40.84;nan
54242;BME280;40156;51.080;17.082;2023-06-26T06:57:32;100144.47;;;41.25;nan
54242;BME280;40156;51.080;17.082;2023-06-26T07:00:02;100138.59;;;39.99;nan
54242;BME280;40156;51.080;17.082;2023-06-26T07:02:30;100143.19;;;41.74;nan
54242;BME280;40156;51.080;17.082;2023-06-26T07:04:59;100131.91;;;42.19;nan
54242;BME280;40156;51.080;17.082;2023-06-26T07:07:28;100138.91;;;40.30;nan
54242;BME280;40156;51.080;17.082;2023-06-26T07:10:11;100140.00;;;42.77;nan
54242;BME280;40156;51.080;17.082;2023-06-26T07:12:40;100134.16;;;39.65;nan
54242;BME280;40156;51.080;17.082;2023-06-26T07:15:08;100132.38;;;38.38;nan
54242;BME280;40156;51.080;17.082;2023-06-26T07:17:36;100129.06;;;40.40;nan
54242;BME280;40156;51.080;17.082;2023-06-26T07:20:05;100130.22;;;37.20;nan
54242;BME280;40156;51.080;17.082;2023-06-26T07:22:34;100135.78;;;37.93;nan
54242;BME280;40156;51.080;17.082;2023-06-26T07:25:03;100120.84;;;36.35;nan
54242;BME280;40156;51.080;17.082;2023-06-26T07:27:31;100120.44;;;35.73;nan
54242;BME280;40156;51.080;17.082;2023-06-26T07:29:59;100116.47;;;36.81;nan
54242;BME280;40156;51.080;17.082;2023-06-26T07:32:27;100118.44;;;37.11;nan
54242;BME280;40156;51.080;17.082;2023-06-26T07:34:56;100116.56;;;39.89;nan
54242;BME280;40156;51.080;17.082;2023-06-26T07:37:24;100126.94;;;37.84;nan
54242;BME280;40156;51.080;17.082;2023-06-26T07:39:52;100113.78;;;36.94;nan
54242;BME280;40156;51.080;17.082;2023-06-26T07:42:20;100117.47;;;36.10;nan
54242;BME280;40156;51.080;17.082;2023-06-26T07:44:49;100116.09;;;36.52;nan
54242;BME280;40156;51.080;17.082;2023-06-26T07:47:17;100123.50;;;37.03;nan
54242;BME280;40156;51.080;17.082;2023-06-26T07:49:45;100114.19;;;36.42;nan
54242;BME280;40156;51.080;17.082;2023-06-26T07:52:14;100118.56;;;37.70;nan
54242;BME280;40156;51.080;17.082;2023-06-26T07:54:43;100119.13;;;36.41;nan
54242;BME280;40156;51.080;17.082;2023-06-26T07:57:11;100115.94;;;39.20;nan
54242;BME280;40156;51.080;17.082;2023-06-26T07:59:39;100123.22;;;41.41;nan
54242;BME280;40156;51.080;17.082;2023-06-26T08:02:08;100122.06;;;42.17;nan
54242;BME280;40156;51.080;17.082;2023-06-26T08:04:36;100122.94;;;40.38;nan
54242;BME280;40156;51.080;17.082;2023-06-26T08:07:04;100124.13;;;37.81;nan
54242;BME280;40156;51.080;17.082;2023-06-26T08:09:33;100110.84;;;38.07;nan
54242;BME280;40156;51.080;17.082;2023-06-26T08:12:01;100105.56;;;39.22;nan
54242;BME280;40156;51.080;17.082;2023-06-26T08:14:29;100105.56;;;38.02;nan
54242;BME280;40156;51.080;17.082;2023-06-26T08:16:57;100108.50;;;36.38;nan
54242;BME280;40156;51.080;17.082;2023-06-26T08:19:26;100094.81;;;35.85;nan
54242;BME280;40156;51.080;17.082;2023-06-26T08:21:53;100100.81;;;35.60;nan
54242;BME280;40156;51.080;17.082;2023-06-26T08:24:22;100106.16;;;37.07;nan
54242;BME280;40156;51.080;17.082;2023-06-26T08:26:50;100103.09;;;37.41;nan
54242;BME280;40156;51.080;17.082;2023-06-26T08:29:18;100102.00;;;35.66;nan
54242;BME280;40156;51.080;17.082;2023-06-26T08:31:46;100085.69;;;35.19;nan
54242;BME280;40156;51.080;17.082;2023-06-26T08:34:15;100095.38;;;36.07;nan
54242;BME280;40156;51.080;17.082;2023-06-26T08:36:43;100098.06;;;36.18;nan
54242;BME280;40156;51.080;17.082;2023-06-26T08:39:11;100093.97;;;39.10;nan
54242;BME280;40156;51.080;17.082;2023-06-26T08:41:39;100103.75;;;36.52;nan
54242;BME280;40156;51.080;17.082;2023-06-26T08:44:07;100097.06;;;37.08;nan
54242;BME280;40156;51.080;17.082;2023-06-26T08:46:35;100092.91;;;37.13;nan
54242;BME280;40156;51.080;17.082;2023-06-26T08:49:31;100090.63;;;38.95;nan
54242;BME280;40156;51.080;17.082;2023-06-26T08:52:10;100091.16;;;39.06;nan
54242;BME280;40156;51.080;17.082;2023-06-26T08:54:45;100085.19;;;37.73;nan
54242;BME280;40156;51.080;17.082;2023-06-26T08:57:17;100085.72;;;39.40;nan
54242;BME280;40156;51.080;17.082;2023-06-26T08:59:46;100093.63;;;40.61;nan
54242;BME280;40156;51.080;17.082;2023-06-26T09:02:15;100075.22;;;40.42;nan
54242;BME280;40156;51.080;17.082;2023-06-26T09:04:44;100074.63;;;39.07;nan
54242;BME280;40156;51.080;17.082;2023-06-26T09:07:12;100076.75;;;41.32;nan
54242;BME280;40156;51.080;17.082;2023-06-26T09:09:40;100076.19;;;39.69;nan
54242;BME280;40156;51.080;17.082;2023-06-26T09:12:09;100078.69;;;37.02;nan
54242;BME280;40156;51.080;17.082;2023-06-26T09:14:37;100079.00;;;38.30;nan
54242;BME280;40156;51.080;17.082;2023-06-26T09:17:06;100082.56;;;39.64;nan
54242;BME280;40156;51.080;17.082;2023-06-26T09:19:37;100075.66;;;43.06;nan
54242;BME280;40156;51.080;17.082;2023-06-26T09:22:13;100071.22;;;41.12;nan
54242;BME280;40156;51.080;17.082;2023-06-26T09:24:43;100068.09;;;39.35;nan
54242;BME280;40156;51.080;17.082;2023-06-26T09:27:12;100062.41;;;39.31;nan
54242;BME280;40156;51.080;17.082;2023-06-26T09:29:40;100059.50;;;37.78;nan
54242;BME280;40156;51.080;17.082;2023-06-26T09:32:09;100053.09;;;38.95;nan
54242;BME280;40156;51.080;17.082;2023-06-26T09:34:41;100058.78;;;39.27;nan
54242;BME280;40156;51.080;17.082;2023-06-26T09:37:14;100062.53;;;37.51;nan
54242;BME280;40156;51.080;17.082;2023-06-26T09:39:42;100059.16;;;37.13;nan
54242;BME280;40156;51.080;17.082;2023-06-26T09:42:13;100051.63;;;39.48;nan
54242;BME280;40156;51.080;17.082;2023-06-26T09:44:45;100056.53;;;40.05;nan
54242;BME280;40156;51.080;17.082;2023-06-26T09:47:18;100054.09;;;41.40;nan
54242;BME280;40156;51.080;17.082;2023-06-26T09:49:47;100054.97;;;34.68;nan
54242;BME280;40156;51.080;17.082;2023-06-26T09:52:16;100056.47;;;36.26;nan
54242;BME280;40156;51.080;17.082;2023-06-26T09:54:45;100055.03;;;35.09;nan
54242;BME280;40156;51.080;17.082;2023-06-26T09:57:18;100054.06;;;35.60;nan
54242;BME280;40156;51.080;17.082;2023-06-26T09:59:47;100045.44;;;34.85;nan
54242;BME280;40156;51.080;17.082;2023-06-26T10:02:15;100039.91;;;35.76;nan
54242;BME280;40156;51.080;17.082;2023-06-26T10:04:43;100036.69;;;34.51;nan
54242;BME280;40156;51.080;17.082;2023-06-26T10:07:13;100038.38;;;37.26;nan
54242;BME280;40156;51.080;17.082;2023-06-26T10:09:42;100036.16;;;39.55;nan
54242;BME280;40156;51.080;17.082;2023-06-26T10:12:26;100036.19;;;40.22;nan
54242;BME280;40156;51.080;17.082;2023-06-26T10:14:57;100040.81;;;39.65;nan
54242;BME280;40156;51.080;17.082;2023-06-26T10:17:34;100050.19;;;37.90;nan
54242;BME280;40156;51.080;17.082;2023-06-26T10:20:03;100042.72;;;37.34;nan
54242;BME280;40156;51.080;17.082;2023-06-26T10:22:37;100032.22;;;36.54;nan
54242;BME280;40156;51.080;17.082;2023-06-26T10:25:09;100031.25;;;37.30;nan
54242;BME280;40156;51.080;17.082;2023-06-26T10:27:44;100023.00;;;37.32;nan
54242;BME280;40156;51.080;17.082;2023-06-26T10:30:17;100020.66;;;35.39;nan
54242;BME280;40156;51.080;17.082;2023-06-26T10:32:47;100012.91;;;38.36;nan
54242;BME280;40156;51.080;17.082;2023-06-26T10:35:16;100021.47;;;33.99;nan
54242;BME280;40156;51.080;17.082;2023-06-26T10:37:49;100014.72;;;33.54;nan
54242;BME280;40156;51.080;17.082;2023-06-26T10:40:28;100013.25;;;32.53;nan
54242;BME280;40156;51.080;17.082;2023-06-26T10:43:09;100017.34;;;32.84;nan
54242;BME280;40156;51.080;17.082;2023-06-26T10:45:37;100017.59;;;34.27;nan
54242;BME280;40156;51.080;17.082;2023-06-26T10:48:13;100010.19;;;34.33;nan
54242;BME280;40156;51.080;17.082;2023-06-26T10:50:42;100013.03;;;34.40;nan
54242;BME280;40156;51.080;17.082;2023-06-26T10:56:11;100007.44;;;36.60;nan
54242;BME280;40156;51.080;17.082;2023-06-26T11:01:19;100007.13;;;37.64;nan
54242;BME280;40156;51.080;17.082;2023-06-26T11:06:26;99998.94;;;35.38;nan
54242;BME280;40156;51.080;17.082;2023-06-26T11:14:20;99994.06;;;32.43;nan
54242;BME280;40156;51.080;17.082;2023-06-26T11:16:49;99983.44;;;32.83;nan
54242;BME280;40156;51.080;17.082;2023-06-26T11:19:18;99988.59;;;33.37;nan
54242;BME280;40156;51.080;17.082;2023-06-26T11:21:47;99982.97;;;33.09;nan
54242;BME280;40156;51.080;17.082;2023-06-26T11:24:15;99975.22;;;33.97;nan
54242;BME280;40156;51.080;17.082;2023-06-26T11:26:45;99984.25;;;32.65;nan
54242;BME280;40156;51.080;17.082;2023-06-26T11:29:13;99971.50;;;33.13;nan
54242;BME280;40156;51.080;17.082;2023-06-26T11:31:41;99970.66;;;34.03;nan
54242;BME280;40156;51.080;17.082;2023-06-26T11:34:11;99975.28;;;32.35;nan
54242;BME280;40156;51.080;17.082;2023-06-26T11:36:43;99964.25;;;32.51;nan
54242;BME280;40156;51.080;17.082;2023-06-26T11:39:11;99961.28;;;33.26;nan
54242;BME280;40156;51.080;17.082;2023-06-26T11:41:40;99955.03;;;33.49;nan
54242;BME280;40156;51.080;17.082;2023-06-26T11:44:09;99948.69;;;32.81;nan
54242;BME280;40156;51.080;17.082;2023-06-26T11:46:37;99959.47;;;33.60;nan
54242;BME280;40156;51.080;17.082;2023-06-26T11:49:07;99955.09;;;34.07;nan
54242;BME280;40156;51.080;17.082;2023-06-26T11:51:35;99953.16;;;34.45;nan
54242;BME280;40156;51.080;17.082;2023-06-26T11:54:04;99954.84;;;34.39;nan
54242;BME280;40156;51.080;17.082;2023-06-26T11:56:32;99948.00;;;34.71;nan
54242;BME280;40156;51.080;17.082;2023-06-26T11:59:06;99947.13;;;33.74;nan
54242;BME280;40156;51.080;17.082;2023-06-26T12:01:39;99943.38;;;34.84;nan
54242;BME280;40156;51.080;17.082;2023-06-26T12:04:10;99944.50;;;34.93;nan
54242;BME280;40156;51.080;17.082;2023-06-26T12:06:42;99942.66;;;33.66;nan
54242;BME280;40156;51.080;17.082;2023-06-26T12:09:11;99938.09;;;33.72;nan
54242;BME280;40156;51.080;17.082;2023-06-26T12:11:43;99929.94;;;33.74;nan
54242;BME280;40156;51.080;17.082;2023-06-26T12:14:11;99929.81;;;33.12;nan
54242;BME280;40156;51.080;17.082;2023-06-26T12:16:40;99925.31;;;33.07;nan
54242;BME280;40156;51.080;17.082;2023-06-26T12:19:08;99916.69;;;33.14;nan
54242;BME280;40156;51.080;17.082;2023-06-26T12:24:07;99920.25;;;34.12;nan
54242;BME280;40156;51.080;17.082;2023-06-26T12:26:35;99914.13;;;33.44;nan
54242;BME280;40156;51.080;17.082;2023-06-26T12:29:09;99914.56;;;34.05;nan
54242;BME280;40156;51.080;17.082;2023-06-26T12:31:43;99910.38;;;33.55;nan
54242;BME280;40156;51.080;17.082;2023-06-26T12:34:13;99901.25;;;33.04;nan
54242;BME280;40156;51.080;17.082;2023-06-26T12:36:42;99903.63;;;33.13;nan
54242;BME280;40156;51.080;17.082;2023-06-26T12:39:11;99909.06;;;32.65;nan
54242;BME280;40156;51.080;17.082;2023-06-26T12:41:46;99907.50;;;32.28;nan
54242;BME280;40156;51.080;17.082;2023-06-26T12:44:23;99906.25;;;32.68;nan
54242;BME280;40156;51.080;17.082;2023-06-26T12:47:00;99896.88;;;32.43;nan
54242;BME280;40156;51.080;17.082;2023-06-26T12:49:30;99903.81;;;31.89;nan
54242;BME280;40156;51.080;17.082;2023-06-26T12:52:00;99895.66;;;32.37;nan
54242;BME280;40156;51.080;17.082;2023-06-26T12:54:28;99895.63;;;32.73;nan
54242;BME280;40156;51.080;17.082;2023-06-26T12:56:57;99888.72;;;32.10;nan
54242;BME280;40156;51.080;17.082;2023-06-26T12:59:25;99885.47;;;32.40;nan
54242;BME280;40156;51.080;17.082;2023-06-26T13:01:53;99881.78;;;32.18;nan
54242;BME280;40156;51.080;17.082;2023-06-26T13:04:21;99874.44;;;31.85;nan
54242;BME280;40156;51.080;17.082;2023-06-26T13:06:50;99880.06;;;32.66;nan
54242;BME280;40156;51.080;17.082;2023-06-26T13:09:18;99879.97;;;32.98;nan
54242;BME280;40156;51.080;17.082;2023-06-26T13:11:46;99878.16;;;33.43;nan
54242;BME280;40156;51.080;17.082;2023-06-26T13:14:14;99869.13;;;33.49;nan
54242;BME280;40156;51.080;17.082;2023-06-26T13:16:42;99867.34;;;32.92;nan
54242;BME280;40156;51.080;17.082;2023-06-26T13:19:11;99867.41;;;32.67;nan
54242;BME280;40156;51.080;17.082;2023-06-26T13:21:39;99861.59;;;33.76;nan
54242;BME280;40156;51.080;17.082;2023-06-26T13:24:07;99850.91;;;34.66;nan
54242;BME280;40156;51.080;17.082;2023-06-26T13:26:35;99855.56;;;32.80;nan
54242;BME280;40156;51.080;17.082;2023-06-26T13:29:05;99846.53;;;32.85;nan
54242;BME280;40156;51.080;17.082;2023-06-26T13:31:33;99850.50;;;33.09;nan
54242;BME280;40156;51.080;17.082;2023-06-26T13:34:02;99835.63;;;33.38;nan